Terminal Aerodrome Forecast
Issued by NWS

Home | Current Version | Previous Version | Graphics & Text | Print | Product List | Glossary On
Versions: 1 2 3 4 5 6 7 8 9 10 11 12 13 14 15 16 17 18 19 20 21 22 23 24 25 26 27 28 29 30
000
FTUS43 KICT 201200 AAA
TAFCNU
TAF AMD
KCNU 201200Z 2013/2112 36009KT P6SM OVC008
     FM201400 01013KT P6SM OVC015
     FM201700 36017KT P6SM OVC022=

USA.gov is the U.S. government's official web portal to all federal, state and local government web resources and services.